createdAt,value
2023-05-08T00:00:18.731Z,1012.02
2023-05-08T00:01:18.732Z,1012.03
2023-05-08T00:02:18.780Z,1012.07
2023-05-08T00:03:18.800Z,1012.05
2023-05-08T00:04:18.738Z,1012.09
2023-05-08T00:05:18.685Z,1012.07
2023-05-08T00:06:19.610Z,1012.07
2023-05-08T00:07:18.673Z,1012.09
2023-05-08T00:08:19.589Z,1012.05
2023-05-08T00:09:19.637Z,1012.11
2023-05-08T00:10:18.657Z,1012.11
2023-05-08T00:11:19.130Z,1012.05
2023-05-08T00:12:18.604Z,1012.10
2023-05-08T00:13:18.674Z,1012.12
2023-05-08T00:14:18.594Z,1012.12
2023-05-08T00:15:18.563Z,1012.11
2023-05-08T00:16:18.649Z,1012.13
2023-05-08T00:17:18.545Z,1012.08
2023-05-08T00:18:18.534Z,1012.13
2023-05-08T00:19:18.535Z,1012.12
2023-05-08T00:20:18.523Z,1012.12
2023-05-08T00:21:18.511Z,1012.13
2023-05-08T00:22:18.503Z,1012.13
2023-05-08T00:23:18.485Z,1012.13
2023-05-08T00:24:18.484Z,1012.13
2023-05-08T00:25:18.489Z,1012.14
2023-05-08T00:26:18.626Z,1012.17
2023-05-08T00:27:18.431Z,1012.15
2023-05-08T00:28:18.429Z,1012.18
2023-05-08T00:29:18.433Z,1012.15
2023-05-08T00:30:18.398Z,1012.18
2023-05-08T00:31:18.397Z,1012.21
2023-05-08T00:32:18.451Z,1012.18
2023-05-08T00:33:18.357Z,1012.19
2023-05-08T00:34:18.360Z,1012.22
2023-05-08T00:35:18.352Z,1012.23
2023-05-08T00:36:18.353Z,1012.20
2023-05-08T00:37:18.332Z,1012.18
2023-05-08T00:38:18.311Z,1012.20
2023-05-08T00:39:18.316Z,1012.23
2023-05-08T00:40:18.307Z,1012.23
2023-05-08T00:41:18.401Z,1012.26
2023-05-08T00:42:18.287Z,1012.20
2023-05-08T00:43:18.245Z,1012.24
2023-05-08T00:44:18.237Z,1012.23
2023-05-08T00:45:18.241Z,1012.27
2023-05-08T00:46:18.299Z,1012.22
2023-05-08T00:47:18.208Z,1012.23
2023-05-08T00:48:18.215Z,1012.22
2023-05-08T00:49:18.175Z,1012.25
2023-05-08T00:50:18.171Z,1012.26
2023-05-08T00:51:18.152Z,1012.28
2023-05-08T00:52:18.148Z,1012.24
2023-05-08T00:53:18.146Z,1012.28
2023-05-08T00:54:19.100Z,1012.25
2023-05-08T00:55:18.128Z,1012.25
2023-05-08T00:56:18.124Z,1012.25
2023-05-08T00:57:18.122Z,1012.24
2023-05-08T00:58:18.096Z,1012.26
2023-05-08T00:59:18.071Z,1012.24
2023-05-08T01:00:18.076Z,1012.27
2023-05-08T01:01:18.085Z,1012.27
2023-05-08T01:02:18.043Z,1012.29
2023-05-08T01:03:18.154Z,1012.29
2023-05-08T01:04:18.014Z,1012.32
2023-05-08T01:05:17.992Z,1012.33
2023-05-08T01:06:18.006Z,1012.30
2023-05-08T01:07:18.003Z,1012.34
2023-05-08T01:08:17.959Z,1012.31
2023-05-08T01:09:17.950Z,1012.36
2023-05-08T01:10:17.951Z,1012.32
2023-05-08T01:11:17.927Z,1012.32
2023-05-08T01:12:19.615Z,1012.34
2023-05-08T01:13:18.027Z,1012.28
2023-05-08T01:14:17.895Z,1012.32
2023-05-08T01:15:18.115Z,1012.35
2023-05-08T01:16:17.904Z,1012.32
2023-05-08T01:17:17.875Z,1012.38
2023-05-08T01:18:17.877Z,1012.35
2023-05-08T01:19:17.860Z,1012.33
2023-05-08T01:20:17.859Z,1012.33
2023-05-08T01:21:18.596Z,1012.38
2023-05-08T01:22:17.816Z,1012.35
2023-05-08T01:23:17.820Z,1012.37
2023-05-08T01:24:17.800Z,1012.40
2023-05-08T01:25:17.799Z,1012.39
2023-05-08T01:26:17.761Z,1012.38
2023-05-08T01:27:18.615Z,1012.43
2023-05-08T01:28:17.739Z,1012.42
2023-05-08T01:29:17.841Z,1012.38
2023-05-08T01:30:17.715Z,1012.38
2023-05-08T01:31:17.736Z,1012.42
2023-05-08T01:32:18.604Z,1012.42
2023-05-08T01:33:17.829Z,1012.43
2023-05-08T01:34:17.662Z,1012.40
2023-05-08T01:35:17.669Z,1012.40
2023-05-08T01:36:17.650Z,1012.43
2023-05-08T01:37:17.686Z,1012.46
2023-05-08T01:38:17.634Z,1012.44
2023-05-08T01:39:17.611Z,1012.40
2023-05-08T01:40:17.629Z,1012.39
2023-05-08T01:41:17.603Z,1012.41
2023-05-08T01:42:17.613Z,1012.44
2023-05-08T01:43:17.600Z,1012.39
2023-05-08T01:44:17.556Z,1012.42
2023-05-08T01:45:17.567Z,1012.45
2023-05-08T01:46:17.547Z,1012.48
2023-05-08T01:47:17.534Z,1012.41
2023-05-08T01:48:17.524Z,1012.43
2023-05-08T01:49:17.506Z,1012.43
2023-05-08T01:50:17.504Z,1012.42
2023-05-08T01:51:17.494Z,1012.41
2023-05-08T01:52:17.464Z,1012.42
2023-05-08T01:53:17.469Z,1012.45
2023-05-08T01:54:17.441Z,1012.42
2023-05-08T01:55:17.451Z,1012.44
2023-05-08T01:56:17.420Z,1012.41
2023-05-08T01:57:17.418Z,1012.43
2023-05-08T01:58:17.418Z,1012.43
2023-05-08T01:59:18.110Z,1012.44
2023-05-08T02:00:17.391Z,1012.48
2023-05-08T02:01:17.408Z,1012.47
2023-05-08T02:02:17.398Z,1012.45
2023-05-08T02:03:17.393Z,1012.52
2023-05-08T02:04:17.393Z,1012.51
2023-05-08T02:05:18.115Z,1012.48
2023-05-08T02:06:17.304Z,1012.49
2023-05-08T02:07:17.342Z,1012.53
2023-05-08T02:08:17.284Z,1012.50
2023-05-08T02:09:17.271Z,1012.49
2023-05-08T02:10:17.280Z,1012.53
2023-05-08T02:11:17.250Z,1012.51
2023-05-08T02:12:17.264Z,1012.52
2023-05-08T02:13:17.286Z,1012.51
2023-05-08T02:14:17.206Z,1012.52
2023-05-08T02:15:17.198Z,1012.51
2023-05-08T02:16:17.235Z,1012.52
2023-05-08T02:17:17.201Z,1012.53
2023-05-08T02:18:18.115Z,1012.52
2023-05-08T02:19:17.194Z,1012.56
2023-05-08T02:20:18.101Z,1012.52
2023-05-08T02:21:17.129Z,1012.53
2023-05-08T02:22:17.128Z,1012.53
2023-05-08T02:23:17.128Z,1012.54
2023-05-08T02:24:17.608Z,1012.56
2023-05-08T02:25:17.120Z,1012.53
2023-05-08T02:26:17.133Z,1012.54
2023-05-08T02:27:17.078Z,1012.53
2023-05-08T02:28:17.092Z,1012.55
2023-05-08T02:29:17.052Z,1012.49
2023-05-08T02:30:17.029Z,1012.48
2023-05-08T02:31:17.050Z,1012.47
2023-05-08T02:32:17.164Z,1012.48
2023-05-08T02:33:17.185Z,1012.49
2023-05-08T02:34:17.003Z,1012.49
2023-05-08T02:35:16.983Z,1012.48
2023-05-08T02:36:17.655Z,1012.51
2023-05-08T02:37:16.951Z,1012.49
2023-05-08T02:38:16.982Z,1012.51
2023-05-08T02:39:16.952Z,1012.53
2023-05-08T02:40:16.933Z,1012.52
2023-05-08T02:41:16.905Z,1012.52
2023-05-08T02:42:16.909Z,1012.52
2023-05-08T02:43:16.897Z,1012.58
2023-05-08T02:44:16.894Z,1012.55
2023-05-08T02:45:16.876Z,1012.57
2023-05-08T02:46:16.893Z,1012.57
2023-05-08T02:47:16.848Z,1012.58
2023-05-08T02:48:16.846Z,1012.60
2023-05-08T02:49:16.921Z,1012.57
2023-05-08T02:50:16.827Z,1012.58
2023-05-08T02:51:16.810Z,1012.59
2023-05-08T02:52:16.787Z,1012.59
2023-05-08T02:53:16.770Z,1012.58
2023-05-08T02:54:16.755Z,1012.64
2023-05-08T02:55:16.754Z,1012.62
2023-05-08T02:56:16.751Z,1012.63
2023-05-08T02:57:16.733Z,1012.65
2023-05-08T02:58:16.722Z,1012.66
2023-05-08T02:59:16.719Z,1012.65
2023-05-08T03:00:16.702Z,1012.64
2023-05-08T03:01:16.699Z,1012.63
2023-05-08T03:02:16.716Z,1012.65
2023-05-08T03:03:16.759Z,1012.65
2023-05-08T03:04:16.639Z,1012.70
2023-05-08T03:05:16.651Z,1012.68
2023-05-08T03:06:16.632Z,1012.68
2023-05-08T03:07:16.617Z,1012.72
2023-05-08T03:08:17.110Z,1012.66
2023-05-08T03:09:16.593Z,1012.66
2023-05-08T03:10:16.613Z,1012.71
2023-05-08T03:11:16.561Z,1012.69
2023-05-08T03:12:16.565Z,1012.70
2023-05-08T03:13:16.582Z,1012.70
2023-05-08T03:14:16.521Z,1012.73
2023-05-08T03:15:16.510Z,1012.69
2023-05-08T03:16:16.548Z,1012.70
2023-05-08T03:17:16.502Z,1012.70
2023-05-08T03:18:16.479Z,1012.71
2023-05-08T03:19:16.479Z,1012.68
2023-05-08T03:20:16.478Z,1012.72
2023-05-08T03:21:16.489Z,1012.72
2023-05-08T03:22:16.444Z,1012.73
2023-05-08T03:23:16.438Z,1012.70
2023-05-08T03:24:16.422Z,1012.72
2023-05-08T03:25:16.408Z,1012.75
2023-05-08T03:26:16.402Z,1012.77
2023-05-08T03:27:17.115Z,1012.75
2023-05-08T03:28:16.369Z,1012.77
2023-05-08T03:29:16.384Z,1012.73
2023-05-08T03:30:16.352Z,1012.73
2023-05-08T03:31:16.362Z,1012.76
2023-05-08T03:32:16.336Z,1012.75
2023-05-08T03:33:16.307Z,1012.75
2023-05-08T03:34:16.319Z,1012.74
2023-05-08T03:35:16.280Z,1012.74
2023-05-08T03:36:16.291Z,1012.73
2023-05-08T03:37:16.290Z,1012.74
2023-05-08T03:38:16.247Z,1012.70
2023-05-08T03:39:16.257Z,1012.72
2023-05-08T03:40:16.245Z,1012.74
2023-05-08T03:41:16.205Z,1012.71
2023-05-08T03:42:16.218Z,1012.75
2023-05-08T03:43:16.204Z,1012.72
2023-05-08T03:44:16.177Z,1012.74
2023-05-08T03:45:16.200Z,1012.77
2023-05-08T03:46:16.181Z,1012.78
2023-05-08T03:47:16.157Z,1012.77
2023-05-08T03:48:16.158Z,1012.76
2023-05-08T03:49:16.141Z,1012.75
2023-05-08T03:50:16.120Z,1012.72
2023-05-08T03:51:16.096Z,1012.78
2023-05-08T03:52:16.089Z,1012.75
2023-05-08T03:53:16.116Z,1012.74
2023-05-08T03:54:16.081Z,1012.73
2023-05-08T03:55:16.070Z,1012.77
2023-05-08T03:56:16.040Z,1012.75
2023-05-08T03:57:16.057Z,1012.73
2023-05-08T03:58:16.021Z,1012.77
2023-05-08T03:59:16.019Z,1012.77
2023-05-08T04:00:16.162Z,1012.74
2023-05-08T04:01:16.001Z,1012.70
2023-05-08T04:02:16.016Z,1012.75
2023-05-08T04:03:16.072Z,1012.73
2023-05-08T04:04:16.041Z,1012.71
2023-05-08T04:05:15.978Z,1012.74
2023-05-08T04:06:15.966Z,1012.73
2023-05-08T04:07:15.926Z,1012.75
2023-05-08T04:08:15.926Z,1012.76
2023-05-08T04:09:15.991Z,1012.78
2023-05-08T04:10:17.650Z,1012.82
2023-05-08T04:11:15.913Z,1012.85
2023-05-08T04:12:15.877Z,1012.78
2023-05-08T04:13:15.932Z,1012.79
2023-05-08T04:14:15.870Z,1012.79
2023-05-08T04:15:16.054Z,1012.82
2023-05-08T04:16:15.910Z,1012.83
2023-05-08T04:17:15.825Z,1012.83
2023-05-08T04:18:15.808Z,1012.83
2023-05-08T04:19:15.807Z,1012.78
2023-05-08T04:20:15.816Z,1012.82
2023-05-08T04:21:15.775Z,1012.81
2023-05-08T04:22:15.767Z,1012.80
2023-05-08T04:23:15.765Z,1012.79
2023-05-08T04:24:15.731Z,1012.79
2023-05-08T04:25:16.000Z,1012.81
2023-05-08T04:26:16.576Z,1012.79
2023-05-08T04:27:15.707Z,1012.78
2023-05-08T04:28:15.711Z,1012.79
2023-05-08T04:29:16.623Z,1012.79
2023-05-08T04:30:15.695Z,1012.81
2023-05-08T04:31:15.745Z,1012.79
2023-05-08T04:32:16.237Z,1012.82
2023-05-08T04:33:15.704Z,1012.82
2023-05-08T04:34:15.642Z,1012.80
2023-05-08T04:35:15.781Z,1012.86
2023-05-08T04:36:15.607Z,1012.85
2023-05-08T04:37:15.589Z,1012.88
2023-05-08T04:38:15.582Z,1012.87
2023-05-08T04:39:15.572Z,1012.88
2023-05-08T04:40:15.572Z,1012.87
2023-05-08T04:41:15.591Z,1012.92
2023-05-08T04:42:15.540Z,1012.92
2023-05-08T04:43:15.527Z,1012.88
2023-05-08T04:44:15.528Z,1012.91
2023-05-08T04:45:15.638Z,1012.91
2023-05-08T04:46:15.554Z,1012.95
2023-05-08T04:47:16.140Z,1012.91
2023-05-08T04:48:15.483Z,1012.94
2023-05-08T04:49:15.504Z,1012.92
2023-05-08T04:50:15.475Z,1012.97
2023-05-08T04:51:15.448Z,1012.96
2023-05-08T04:52:15.438Z,1012.94
2023-05-08T04:53:15.441Z,1012.95
2023-05-08T04:54:15.410Z,1012.98
2023-05-08T04:55:15.496Z,1012.95
2023-05-08T04:56:15.389Z,1012.94
2023-05-08T04:57:15.400Z,1012.98
2023-05-08T04:58:15.373Z,1012.98
2023-05-08T04:59:16.175Z,1012.96
2023-05-08T05:00:15.418Z,1012.97
2023-05-08T05:01:15.357Z,1012.96
2023-05-08T05:02:15.351Z,1013.00
2023-05-08T05:03:17.167Z,1012.96
2023-05-08T05:04:15.335Z,1013.00
2023-05-08T05:05:15.452Z,1012.99
2023-05-08T05:06:15.303Z,1012.99
2023-05-08T05:07:16.122Z,1013.00
2023-05-08T05:08:16.148Z,1013.00
2023-05-08T05:09:15.244Z,1013.00
2023-05-08T05:10:15.209Z,1013.01
2023-05-08T05:11:15.251Z,1013.00
2023-05-08T05:12:15.248Z,1013.02
2023-05-08T05:13:15.346Z,1013.05
2023-05-08T05:14:15.177Z,1013.00
2023-05-08T05:15:15.294Z,1012.99
2023-05-08T05:16:15.186Z,1013.04
2023-05-08T05:17:15.176Z,1013.01
2023-05-08T05:18:15.639Z,1013.08
2023-05-08T05:19:15.172Z,1013.06
2023-05-08T05:20:15.136Z,1013.06
2023-05-08T05:21:15.092Z,1013.13
2023-05-08T05:22:15.089Z,1013.08
2023-05-08T05:23:15.062Z,1013.12
2023-05-08T05:24:15.150Z,1013.14
2023-05-08T05:25:15.308Z,1013.12
2023-05-08T05:26:15.092Z,1013.11
2023-05-08T05:27:15.080Z,1013.16
2023-05-08T05:28:15.025Z,1013.09
2023-05-08T05:29:15.101Z,1013.13
2023-05-08T05:30:15.304Z,1013.13
2023-05-08T05:31:15.075Z,1013.15
2023-05-08T05:32:14.989Z,1013.12
2023-05-08T05:33:14.958Z,1013.10
2023-05-08T05:34:15.014Z,1013.13
2023-05-08T05:35:15.186Z,1013.15
2023-05-08T05:36:14.956Z,1013.12
2023-05-08T05:37:14.948Z,1013.14
2023-05-08T05:38:14.889Z,1013.12
2023-05-08T05:39:16.781Z,1013.15
2023-05-08T05:40:14.892Z,1013.15
2023-05-08T05:41:14.906Z,1013.13
2023-05-08T05:42:14.969Z,1013.13
2023-05-08T05:43:14.862Z,1013.14
2023-05-08T05:44:14.881Z,1013.14
2023-05-08T05:45:15.025Z,1013.17
2023-05-08T05:46:14.893Z,1013.21
2023-05-08T05:47:14.864Z,1013.21
2023-05-08T05:48:14.870Z,1013.20
2023-05-08T05:49:14.828Z,1013.19
2023-05-08T05:50:15.726Z,1013.24
2023-05-08T05:51:15.160Z,1013.26
2023-05-08T05:52:14.766Z,1013.27
2023-05-08T05:53:14.802Z,1013.28
2023-05-08T05:54:14.751Z,1013.32
2023-05-08T05:55:14.917Z,1013.27
2023-05-08T05:56:14.712Z,1013.26
2023-05-08T05:57:14.701Z,1013.30
2023-05-08T05:58:14.712Z,1013.32
2023-05-08T05:59:14.702Z,1013.33
2023-05-08T06:00:14.751Z,1013.36
2023-05-08T06:01:14.737Z,1013.34
2023-05-08T06:02:14.727Z,1013.34
2023-05-08T06:03:14.782Z,1013.38
2023-05-08T06:04:14.670Z,1013.33
2023-05-08T06:05:14.753Z,1013.34
2023-05-08T06:06:14.576Z,1013.38
2023-05-08T06:07:14.567Z,1013.39
2023-05-08T06:08:14.594Z,1013.35
2023-05-08T06:09:14.578Z,1013.37
2023-05-08T06:10:17.118Z,1013.40
2023-05-08T06:11:14.534Z,1013.41
2023-05-08T06:12:14.496Z,1013.41
2023-05-08T06:13:14.544Z,1013.41
2023-05-08T06:14:14.531Z,1013.37
2023-05-08T06:15:14.760Z,1013.36
2023-05-08T06:16:14.563Z,1013.34
2023-05-08T06:17:14.642Z,1013.34
2023-05-08T06:18:14.493Z,1013.34
2023-05-08T06:19:14.657Z,1013.36
2023-05-08T06:20:14.417Z,1013.35
2023-05-08T06:21:14.393Z,1013.38
2023-05-08T06:22:14.410Z,1013.37
2023-05-08T06:23:14.446Z,1013.42
2023-05-08T06:24:14.370Z,1013.42
2023-05-08T06:25:14.601Z,1013.41
2023-05-08T06:26:14.346Z,1013.42
2023-05-08T06:27:14.369Z,1013.35
2023-05-08T06:28:14.350Z,1013.39
2023-05-08T06:29:14.312Z,1013.43
2023-05-08T06:30:14.295Z,1013.43
2023-05-08T06:31:14.456Z,1013.41
2023-05-08T06:32:14.315Z,1013.43
2023-05-08T06:33:14.332Z,1013.44
2023-05-08T06:34:14.286Z,1013.46
2023-05-08T06:35:14.520Z,1013.44
2023-05-08T06:36:14.236Z,1013.43
2023-05-08T06:37:14.256Z,1013.44
2023-05-08T06:38:14.747Z,1013.42
2023-05-08T06:39:14.206Z,1013.49
2023-05-08T06:40:14.261Z,1013.42
2023-05-08T06:41:15.287Z,1013.49
2023-05-08T06:42:14.306Z,1013.47
2023-05-08T06:43:14.187Z,1013.48
2023-05-08T06:44:14.259Z,1013.55
2023-05-08T06:45:14.312Z,1013.55
2023-05-08T06:46:14.214Z,1013.60
2023-05-08T06:47:15.683Z,1013.56
2023-05-08T06:48:14.193Z,1013.59
2023-05-08T06:49:14.131Z,1013.59
2023-05-08T06:50:14.131Z,1013.61
2023-05-08T06:51:14.103Z,1013.64
2023-05-08T06:52:14.122Z,1013.62
2023-05-08T06:53:14.083Z,1013.61
2023-05-08T06:54:14.042Z,1013.62
2023-05-08T06:55:14.323Z,1013.62
2023-05-08T06:56:14.038Z,1013.61
2023-05-08T06:57:14.042Z,1013.66
2023-05-08T06:58:13.995Z,1013.64
2023-05-08T06:59:14.034Z,1013.59
2023-05-08T07:00:14.009Z,1013.64
2023-05-08T07:01:14.070Z,1013.63
2023-05-08T07:02:13.972Z,1013.65
2023-05-08T07:03:14.119Z,1013.65
2023-05-08T07:04:13.971Z,1013.64
2023-05-08T07:05:14.485Z,1013.65
2023-05-08T07:06:13.933Z,1013.61
2023-05-08T07:07:13.923Z,1013.61
2023-05-08T07:08:13.882Z,1013.67
2023-05-08T07:09:13.969Z,1013.65
2023-05-08T07:10:13.873Z,1013.68
2023-05-08T07:11:13.876Z,1013.62
2023-05-08T07:12:13.836Z,1013.62
2023-05-08T07:13:13.883Z,1013.65
2023-05-08T07:14:13.810Z,1013.61
2023-05-08T07:15:41.008Z,1013.63
2023-05-08T07:16:14.804Z,1013.60
2023-05-08T07:17:13.792Z,1013.63
2023-05-08T07:18:13.815Z,1013.67
2023-05-08T07:19:13.754Z,1013.62
2023-05-08T07:20:13.794Z,1013.68
2023-05-08T07:21:13.763Z,1013.62
2023-05-08T07:22:13.768Z,1013.57
2023-05-08T07:23:13.703Z,1013.56
2023-05-08T07:24:13.725Z,1013.55
2023-05-08T07:25:14.032Z,1013.59
2023-05-08T07:26:13.699Z,1013.49
2023-05-08T07:27:13.667Z,1013.53
2023-05-08T07:28:13.648Z,1013.54
2023-05-08T07:29:13.642Z,1013.55
2023-05-08T07:30:13.644Z,1013.57
2023-05-08T07:31:13.730Z,1013.56
2023-05-08T07:32:13.628Z,1013.56
2023-05-08T07:33:13.641Z,1013.52
2023-05-08T07:34:13.681Z,1013.54
2023-05-08T07:35:13.711Z,1013.54
2023-05-08T07:36:14.178Z,1013.51
2023-05-08T07:37:13.745Z,1013.53
2023-05-08T07:38:13.542Z,1013.50
2023-05-08T07:39:13.563Z,1013.54
2023-05-08T07:40:13.537Z,1013.55
2023-05-08T07:41:14.201Z,1013.53
2023-05-08T07:42:14.191Z,1013.53
2023-05-08T07:43:13.479Z,1013.50
2023-05-08T07:44:14.136Z,1013.45
2023-05-08T07:45:13.979Z,1013.49
2023-05-08T07:46:13.460Z,1013.45
2023-05-08T07:47:13.909Z,1013.49
2023-05-08T07:48:13.594Z,1013.45
2023-05-08T07:49:13.436Z,1013.47
2023-05-08T07:50:13.415Z,1013.50
2023-05-08T07:51:14.313Z,1013.46
2023-05-08T07:52:13.375Z,1013.49
2023-05-08T07:53:13.463Z,1013.49
2023-05-08T07:54:13.408Z,1013.52
2023-05-08T07:55:13.539Z,1013.56
2023-05-08T07:56:13.369Z,1013.55
2023-05-08T07:57:13.324Z,1013.57
2023-05-08T07:58:13.358Z,1013.56
2023-05-08T07:59:13.314Z,1013.65
2023-05-08T08:00:13.324Z,1013.61
2023-05-08T08:01:13.287Z,1013.61
2023-05-08T08:02:13.392Z,1013.59
2023-05-08T08:03:13.453Z,1013.63
2023-05-08T08:04:14.785Z,1013.62
2023-05-08T08:05:13.587Z,1013.67
2023-05-08T08:06:13.254Z,1013.67
2023-05-08T08:07:13.274Z,1013.68
2023-05-08T08:08:13.201Z,1013.67
2023-05-08T08:09:13.334Z,1013.69
2023-05-08T08:10:13.224Z,1013.71
2023-05-08T08:11:13.697Z,1013.74
2023-05-08T08:12:13.205Z,1013.70
2023-05-08T08:13:13.170Z,1013.65
2023-05-08T08:14:13.133Z,1013.63
2023-05-08T08:15:13.348Z,1013.67
2023-05-08T08:16:14.149Z,1013.70
2023-05-08T08:17:13.181Z,1013.69
2023-05-08T08:18:13.126Z,1013.68
2023-05-08T08:19:13.107Z,1013.67
2023-05-08T08:20:13.686Z,1013.66
2023-05-08T08:21:13.674Z,1013.68
2023-05-08T08:22:13.062Z,1013.67
2023-05-08T08:23:13.023Z,1013.75
2023-05-08T08:24:13.028Z,1013.72
2023-05-08T08:25:13.381Z,1013.75
2023-05-08T08:26:12.987Z,1013.74
2023-05-08T08:27:13.097Z,1013.73
2023-05-08T08:28:12.983Z,1013.75
2023-05-08T08:29:12.964Z,1013.72
2023-05-08T08:30:18.330Z,1013.67
2023-05-08T08:31:14.067Z,1013.67
2023-05-08T08:32:12.935Z,1013.69
2023-05-08T08:33:13.003Z,1013.67
2023-05-08T08:34:12.984Z,1013.69
2023-05-08T08:35:13.372Z,1013.68
2023-05-08T08:36:13.064Z,1013.73
2023-05-08T08:37:12.904Z,1013.67
2023-05-08T08:38:13.664Z,1013.68
2023-05-08T08:39:14.676Z,1013.74
2023-05-08T08:40:12.878Z,1013.70
2023-05-08T08:41:12.962Z,1013.68
2023-05-08T08:42:12.862Z,1013.70
2023-05-08T08:43:12.848Z,1013.69
2023-05-08T08:44:12.809Z,1013.69
2023-05-08T08:45:13.266Z,1013.65
2023-05-08T08:46:13.691Z,1013.68
2023-05-08T08:47:12.778Z,1013.69
2023-05-08T08:48:12.783Z,1013.68
2023-05-08T08:49:12.732Z,1013.67
2023-05-08T08:50:14.446Z,1013.69
2023-05-08T08:51:13.188Z,1013.67
2023-05-08T08:52:12.745Z,1013.69
2023-05-08T08:53:12.690Z,1013.70
2023-05-08T08:54:12.774Z,1013.73
2023-05-08T08:55:12.920Z,1013.74
2023-05-08T08:56:12.667Z,1013.74
2023-05-08T08:57:12.810Z,1013.72
2023-05-08T08:58:12.668Z,1013.69
2023-05-08T08:59:12.678Z,1013.70
2023-05-08T09:00:12.638Z,1013.75
2023-05-08T09:01:12.638Z,1013.75
2023-05-08T09:02:12.727Z,1013.73
2023-05-08T09:03:12.716Z,1013.70
2023-05-08T09:04:12.674Z,1013.70
2023-05-08T09:05:12.890Z,1013.70
2023-05-08T09:06:12.538Z,1013.70
2023-05-08T09:07:12.626Z,1013.71
2023-05-08T09:08:12.590Z,1013.77
2023-05-08T09:09:12.608Z,1013.70
2023-05-08T09:10:12.525Z,1013.73
2023-05-08T09:11:12.514Z,1013.72
2023-05-08T09:12:12.490Z,1013.72
2023-05-08T09:13:12.758Z,1013.69
2023-05-08T09:14:12.473Z,1013.65
2023-05-08T09:15:12.713Z,1013.67
2023-05-08T09:16:12.541Z,1013.67
2023-05-08T09:17:12.437Z,1013.66
2023-05-08T09:18:12.474Z,1013.71
2023-05-08T09:19:12.413Z,1013.72
2023-05-08T09:20:12.721Z,1013.66
2023-05-08T09:21:13.148Z,1013.72
2023-05-08T09:22:12.381Z,1013.69
2023-05-08T09:23:12.345Z,1013.71
2023-05-08T09:24:12.416Z,1013.70
2023-05-08T09:25:12.689Z,1013.71
2023-05-08T09:26:12.709Z,1013.72
2023-05-08T09:27:12.346Z,1013.73
2023-05-08T09:28:12.296Z,1013.74
2023-05-08T09:29:12.427Z,1013.70
2023-05-08T09:30:12.296Z,1013.69
2023-05-08T09:31:12.298Z,1013.66
2023-05-08T09:32:12.449Z,1013.70
2023-05-08T09:33:12.279Z,1013.67
2023-05-08T09:34:12.226Z,1013.65
2023-05-08T09:35:12.685Z,1013.70
2023-05-08T09:36:12.678Z,1013.68
2023-05-08T09:37:12.227Z,1013.69
2023-05-08T09:38:12.198Z,1013.67
2023-05-08T09:39:12.197Z,1013.68
2023-05-08T09:40:12.174Z,1013.68
2023-05-08T09:41:12.220Z,1013.71
2023-05-08T09:42:12.243Z,1013.69
2023-05-08T09:43:12.175Z,1013.69
2023-05-08T09:44:12.142Z,1013.72
2023-05-08T09:45:12.506Z,1013.70
2023-05-08T09:46:12.248Z,1013.75
2023-05-08T09:47:12.126Z,1013.77
2023-05-08T09:48:12.158Z,1013.74
2023-05-08T09:49:12.064Z,1013.73
2023-05-08T09:50:12.367Z,1013.77
2023-05-08T09:51:12.044Z,1013.73
2023-05-08T09:52:12.071Z,1013.77
2023-05-08T09:53:12.014Z,1013.77
2023-05-08T09:54:12.044Z,1013.75
2023-05-08T09:55:12.029Z,1013.77
2023-05-08T09:56:11.996Z,1013.81
2023-05-08T09:57:12.092Z,1013.81
2023-05-08T09:58:12.006Z,1013.87
2023-05-08T09:59:12.004Z,1013.84
2023-05-08T10:00:12.286Z,1013.84
2023-05-08T10:01:12.005Z,1013.84
2023-05-08T10:02:11.926Z,1013.89
2023-05-08T10:03:11.965Z,1013.86
2023-05-08T10:04:12.005Z,1013.88
2023-05-08T10:05:11.970Z,1013.85
2023-05-08T10:06:12.659Z,1013.85
2023-05-08T10:07:11.909Z,1013.88
2023-05-08T10:08:11.924Z,1013.88
2023-05-08T10:09:11.909Z,1013.84
2023-05-08T10:10:12.106Z,1013.87
2023-05-08T10:11:11.814Z,1013.88
2023-05-08T10:12:11.837Z,1013.86
2023-05-08T10:13:11.914Z,1013.86
2023-05-08T10:14:11.823Z,1013.87
2023-05-08T10:15:11.791Z,1013.88
2023-05-08T10:16:11.908Z,1013.87
2023-05-08T10:17:12.021Z,1013.86
2023-05-08T10:18:11.814Z,1013.87
2023-05-08T10:19:11.729Z,1013.92
2023-05-08T10:20:12.054Z,1013.90
2023-05-08T10:21:11.709Z,1013.89
2023-05-08T10:22:11.769Z,1013.89
2023-05-08T10:23:11.710Z,1013.91
2023-05-08T10:24:11.696Z,1013.90
2023-05-08T10:25:11.872Z,1013.96
2023-05-08T10:26:11.864Z,1013.87
2023-05-08T10:27:11.665Z,1013.86
2023-05-08T10:28:11.694Z,1013.89
2023-05-08T10:29:11.614Z,1013.87
2023-05-08T10:30:11.878Z,1013.89
2023-05-08T10:31:11.619Z,1013.90
2023-05-08T10:32:11.628Z,1013.85
2023-05-08T10:33:11.844Z,1013.92
2023-05-08T10:34:11.589Z,1013.92
2023-05-08T10:35:11.557Z,1013.92
2023-05-08T10:36:11.575Z,1013.85
2023-05-08T10:37:11.567Z,1013.88
2023-05-08T10:38:12.172Z,1013.87
2023-05-08T10:39:11.528Z,1013.88
2023-05-08T10:40:11.822Z,1013.82
2023-05-08T10:41:11.516Z,1013.82
2023-05-08T10:42:11.502Z,1013.81
2023-05-08T10:43:11.498Z,1013.83
2023-05-08T10:44:11.511Z,1013.81
2023-05-08T10:45:11.536Z,1013.79
2023-05-08T10:46:11.531Z,1013.76
2023-05-08T10:47:11.418Z,1013.81
2023-05-08T10:48:11.525Z,1013.78
2023-05-08T10:49:11.447Z,1013.75
2023-05-08T10:50:11.719Z,1013.80
2023-05-08T10:51:11.393Z,1013.73
2023-05-08T10:52:11.368Z,1013.77
2023-05-08T10:53:11.375Z,1013.73
2023-05-08T10:54:11.357Z,1013.72
2023-05-08T10:55:11.324Z,1013.75
2023-05-08T10:56:11.340Z,1013.74
2023-05-08T10:57:11.370Z,1013.72
2023-05-08T10:58:11.314Z,1013.71
2023-05-08T10:59:12.417Z,1013.69
2023-05-08T11:00:11.384Z,1013.69
2023-05-08T11:01:11.338Z,1013.71
2023-05-08T11:02:11.411Z,1013.70
2023-05-08T11:03:23.645Z,1013.69
2023-05-08T11:04:13.380Z,1013.67
2023-05-08T11:05:11.242Z,1013.67
2023-05-08T11:06:11.261Z,1013.71
2023-05-08T11:07:11.220Z,1013.70
2023-05-08T11:08:11.183Z,1013.63
2023-05-08T11:09:11.174Z,1013.64
2023-05-08T11:10:11.393Z,1013.60
2023-05-08T11:11:11.178Z,1013.64
2023-05-08T11:12:11.144Z,1013.60
2023-05-08T11:13:11.161Z,1013.59
2023-05-08T11:14:11.124Z,1013.60
2023-05-08T11:15:11.168Z,1013.63
2023-05-08T11:16:11.230Z,1013.59
2023-05-08T11:17:11.116Z,1013.64
2023-05-08T11:18:11.099Z,1013.60
2023-05-08T11:19:11.083Z,1013.61
2023-05-08T11:20:11.154Z,1013.61
2023-05-08T11:21:11.216Z,1013.56
2023-05-08T11:22:11.031Z,1013.61
2023-05-08T11:23:11.062Z,1013.60
2023-05-08T11:24:11.038Z,1013.58
2023-05-08T11:25:11.021Z,1013.56
2023-05-08T11:26:11.062Z,1013.54
2023-05-08T11:27:10.983Z,1013.56
2023-05-08T11:28:10.967Z,1013.55
2023-05-08T11:29:10.963Z,1013.55
2023-05-08T11:30:11.050Z,1013.55
2023-05-08T11:31:10.980Z,1013.55
2023-05-08T11:32:11.206Z,1013.56
2023-05-08T11:33:10.944Z,1013.49
2023-05-08T11:34:10.908Z,1013.55
2023-05-08T11:35:10.893Z,1013.55
2023-05-08T11:36:10.885Z,1013.56
2023-05-08T11:37:10.888Z,1013.55
2023-05-08T11:38:10.847Z,1013.57
2023-05-08T11:39:11.191Z,1013.56
2023-05-08T11:40:11.023Z,1013.53
2023-05-08T11:41:10.849Z,1013.54
2023-05-08T11:42:10.811Z,1013.51
2023-05-08T11:43:10.791Z,1013.51
2023-05-08T11:44:12.529Z,1013.46
2023-05-08T11:45:10.820Z,1013.38
2023-05-08T11:46:10.757Z,1013.41
2023-05-08T11:47:10.793Z,1013.38
2023-05-08T11:48:10.799Z,1013.33
2023-05-08T11:49:10.735Z,1013.37
2023-05-08T11:50:10.825Z,1013.37
2023-05-08T11:51:10.725Z,1013.39
2023-05-08T11:52:10.729Z,1013.37
2023-05-08T11:53:10.883Z,1013.39
2023-05-08T11:54:10.707Z,1013.35
2023-05-08T11:55:10.702Z,1013.39
2023-05-08T11:56:10.666Z,1013.36
2023-05-08T11:57:10.647Z,1013.32
2023-05-08T11:58:10.633Z,1013.32
2023-05-08T11:59:10.632Z,1013.28
2023-05-08T12:00:10.875Z,1013.31
2023-05-08T12:01:10.687Z,1013.24
2023-05-08T12:02:10.619Z,1013.24
2023-05-08T12:03:10.690Z,1013.23
2023-05-08T12:04:10.839Z,1013.24
2023-05-08T12:05:10.755Z,1013.21